createdAt,value
2022-10-05T00:04:56.704Z,0.2
2022-10-05T00:09:55.706Z,0.1
2022-10-05T00:14:56.395Z,0.2
2022-10-05T00:19:55.521Z,0.2
2022-10-05T00:24:54.755Z,0.2
2022-10-05T00:29:53.804Z,0.2
2022-10-05T00:34:53.904Z,0.2
2022-10-05T00:39:53.175Z,0.1
2022-10-05T00:44:53.882Z,0.2
2022-10-05T00:49:51.210Z,0.2
2022-10-05T00:54:50.839Z,0.2
2022-10-05T00:59:26.304Z,0.1
2022-10-05T01:04:24.779Z,0.2
2022-10-05T01:09:25.390Z,0.2
2022-10-05T01:14:25.671Z,0.2
2022-10-05T01:19:24.725Z,0.2
2022-10-05T01:24:24.592Z,0.2
2022-10-05T01:29:24.496Z,0.1
2022-10-05T01:34:25.462Z,0.2
2022-10-05T01:39:12.085Z,0.2
2022-10-05T01:44:12.264Z,0.2
2022-10-05T01:49:11.279Z,0.2
2022-10-05T01:54:12.403Z,0.2
2022-10-05T01:58:55.124Z,0.2
2022-10-05T02:03:55.109Z,0.2
2022-10-05T02:08:54.057Z,0.2
2022-10-05T02:13:53.717Z,0.2
2022-10-05T02:18:51.858Z,0.2
2022-10-05T02:23:52.832Z,0.2
2022-10-05T02:28:51.468Z,0.2
2022-10-05T02:34:42.986Z,0.2
2022-10-05T02:38:51.838Z,0.2
2022-10-05T02:43:51.484Z,0.2
2022-10-05T02:48:52.533Z,0.2
2022-10-05T02:53:49.160Z,0.2
2022-10-05T02:58:49.215Z,0.2
2022-10-05T03:03:49.073Z,0.2
2022-10-05T03:08:48.993Z,0.2
2022-10-05T03:13:47.090Z,0.2
2022-10-05T03:18:46.857Z,0.2
2022-10-05T03:23:46.688Z,0.2
2022-10-05T03:28:47.002Z,0.2
2022-10-05T03:33:45.959Z,0.2
2022-10-05T03:38:45.233Z,0.2
2022-10-05T03:43:44.820Z,0.2
2022-10-05T03:48:44.628Z,0.2
2022-10-05T03:53:45.012Z,0.2
2022-10-05T03:58:42.474Z,0.2
2022-10-05T04:03:42.425Z,0.2
2022-10-05T04:08:48.814Z,0.2
2022-10-05T04:13:41.016Z,0.2
2022-10-05T04:18:40.886Z,0.2
2022-10-05T04:23:40.235Z,0.2
2022-10-05T04:28:39.859Z,0.2
2022-10-05T04:33:39.989Z,0.2
2022-10-05T04:38:37.488Z,0.2
2022-10-05T04:43:37.408Z,0.2
2022-10-05T04:48:37.480Z,0.2
2022-10-05T04:53:36.743Z,0.2
2022-10-05T04:58:42.168Z,0.2
2022-10-05T04:59:56.132Z,0.2
2022-10-05T05:04:56.099Z,0.2
2022-10-05T05:09:55.301Z,0.3
2022-10-05T05:14:54.569Z,1.2
2022-10-05T05:19:54.042Z,1.1
2022-10-05T05:24:53.892Z,2.6
2022-10-05T05:29:53.022Z,2.9
2022-10-05T05:34:53.829Z,3.6
2022-10-05T05:39:51.159Z,5.3
2022-10-05T05:44:51.340Z,8.4
2022-10-05T05:49:51.331Z,10
2022-10-05T05:54:50.565Z,12.7
2022-10-05T05:59:24.357Z,16.2
2022-10-05T06:04:13.740Z,20.3
2022-10-05T06:09:12.729Z,24.4
2022-10-05T06:14:12.433Z,28.3
2022-10-05T06:19:11.660Z,30.8
2022-10-05T06:24:11.466Z,58.1
2022-10-05T06:29:10.465Z,81.1
2022-10-05T06:34:11.364Z,98.5
2022-10-05T06:39:08.595Z,115.2
2022-10-05T06:44:08.943Z,91.6
2022-10-05T06:49:07.945Z,92.3
2022-10-05T06:54:08.091Z,108.7
2022-10-05T06:58:53.324Z,128.1
2022-10-05T07:03:53.444Z,108.5
2022-10-05T07:08:53.602Z,143
2022-10-05T07:13:53.319Z,171
2022-10-05T07:18:52.796Z,176.1
2022-10-05T07:23:53.151Z,234.8
2022-10-05T07:28:53.118Z,245.8
2022-10-05T07:33:52.279Z,268.7
2022-10-05T07:38:51.347Z,270.6
2022-10-05T07:44:06.772Z,307.7
2022-10-05T07:48:51.338Z,296
2022-10-05T07:53:50.444Z,311.1
2022-10-05T07:58:50.028Z,333
2022-10-05T08:03:50.124Z,341.9
2022-10-05T08:08:49.745Z,337.4
2022-10-05T08:13:48.935Z,124.7
2022-10-05T08:18:49.977Z,134.5
2022-10-05T08:23:46.665Z,106
2022-10-05T08:28:46.955Z,208.4
2022-10-05T08:33:45.014Z,102
2022-10-05T08:38:44.876Z,99.6
2022-10-05T08:43:42.878Z,97.6
2022-10-05T08:48:42.453Z,99.2
2022-10-05T08:53:42.383Z,140.5
2022-10-05T08:58:41.915Z,93.6
2022-10-05T09:03:40.685Z,104.8
2022-10-05T09:08:40.739Z,97
2022-10-05T09:13:41.110Z,122.4
2022-10-05T09:18:40.219Z,96.2
2022-10-05T09:23:38.282Z,92.8
2022-10-05T09:28:38.194Z,139.6
2022-10-05T09:33:38.044Z,129.1
2022-10-05T09:38:37.379Z,104.9
2022-10-05T09:43:37.121Z,133.2
2022-10-05T09:48:36.392Z,504.3
2022-10-05T09:53:36.764Z,362.2
2022-10-05T09:58:35.658Z,470.4
2022-10-05T09:59:58.378Z,535.6
2022-10-05T10:04:55.768Z,550.8
2022-10-05T10:09:55.797Z,565.8
2022-10-05T10:15:01.966Z,567.3
2022-10-05T10:19:54.869Z,587.7
2022-10-05T10:24:54.119Z,584.5
2022-10-05T10:29:54.035Z,587.8
2022-10-05T10:34:54.558Z,592
2022-10-05T10:39:53.999Z,588.2
2022-10-05T10:44:52.550Z,600.3
2022-10-05T10:49:52.190Z,585.8
2022-10-05T10:54:50.962Z,589.2
2022-10-05T10:59:13.088Z,585.8
2022-10-05T11:04:11.713Z,593.6
2022-10-05T11:09:10.858Z,609.7
2022-10-05T11:14:10.924Z,607.7
2022-10-05T11:19:10.675Z,604.7
2022-10-05T11:24:10.221Z,602.4
2022-10-05T11:29:09.520Z,602.2
2022-10-05T11:34:09.685Z,594.6
2022-10-05T11:39:08.781Z,577.9
2022-10-05T11:44:09.983Z,586.9
2022-10-05T11:49:07.007Z,598.4
2022-10-05T11:54:07.096Z,558.4
2022-10-05T11:58:53.008Z,590.7
2022-10-05T12:03:53.521Z,549.8
2022-10-05T12:08:51.420Z,534
2022-10-05T12:13:51.111Z,587.7
2022-10-05T12:18:50.461Z,518.3
2022-10-05T12:23:52.063Z,573.3
2022-10-05T12:28:48.998Z,570.3
2022-10-05T12:33:49.011Z,537.2
2022-10-05T12:38:47.939Z,546.6
2022-10-05T12:43:47.722Z,545.7
2022-10-05T12:48:45.667Z,534.7
2022-10-05T12:53:45.598Z,512.7
2022-10-05T12:58:45.139Z,518.1
2022-10-05T13:03:45.110Z,485
2022-10-05T13:08:44.109Z,510.5
2022-10-05T13:13:43.617Z,496.3
2022-10-05T13:18:44.218Z,497
2022-10-05T13:23:43.379Z,474.2
2022-10-05T13:28:42.754Z,423.5
2022-10-05T13:33:42.005Z,401.9
2022-10-05T13:38:42.039Z,415.7
2022-10-05T13:43:41.011Z,445.9
2022-10-05T13:48:39.801Z,387.2
2022-10-05T13:53:39.099Z,396.4
2022-10-05T13:58:38.749Z,386.6
2022-10-05T14:00:00.568Z,343.6
2022-10-05T14:04:59.025Z,360.2
2022-10-05T14:09:58.302Z,390.7
2022-10-05T14:14:58.367Z,343.3
2022-10-05T14:19:57.388Z,304.5
2022-10-05T14:24:56.526Z,337.5
2022-10-05T14:29:55.662Z,330.7
2022-10-05T14:34:55.649Z,322.3
2022-10-05T14:39:54.960Z,314.6
2022-10-05T14:44:55.603Z,312.9
2022-10-05T14:49:53.236Z,288.6
2022-10-05T14:54:53.021Z,286.3
2022-10-05T14:58:54.203Z,279.4
2022-10-05T15:03:53.551Z,76.6
2022-10-05T15:08:51.728Z,78.2
2022-10-05T15:13:51.043Z,229.1
2022-10-05T15:18:50.870Z,223.1
2022-10-05T15:23:49.871Z,180.3
2022-10-05T15:28:48.901Z,188.2
2022-10-05T15:33:49.836Z,186.4
2022-10-05T15:38:48.478Z,173.9
2022-10-05T15:43:47.574Z,187
2022-10-05T15:48:45.691Z,163
2022-10-05T15:53:45.395Z,112.2
2022-10-05T15:58:45.105Z,96.6
2022-10-05T16:00:07.271Z,76
2022-10-05T16:05:06.623Z,101.6
2022-10-05T16:10:05.006Z,81.3
2022-10-05T16:15:05.153Z,33.9
2022-10-05T16:20:04.407Z,28.2
2022-10-05T16:25:04.967Z,24.8
2022-10-05T16:30:02.602Z,21.9
2022-10-05T16:35:02.029Z,19.8
2022-10-05T16:40:01.798Z,13.9
2022-10-05T16:45:00.901Z,8.9
2022-10-05T16:49:59.358Z,5.9
2022-10-05T16:54:58.572Z,4.2
2022-10-05T16:59:28.813Z,3.8
2022-10-05T17:04:29.913Z,2.9
2022-10-05T17:09:27.206Z,1.9
2022-10-05T17:14:26.895Z,0.9
2022-10-05T17:19:27.718Z,0.5
2022-10-05T17:24:24.799Z,0.4
2022-10-05T17:29:24.672Z,0.3
2022-10-05T17:34:25.489Z,0.3
2022-10-05T17:39:11.935Z,0.3
2022-10-05T17:44:12.184Z,0.3
2022-10-05T17:49:11.627Z,0.3
2022-10-05T17:54:10.841Z,0.3
2022-10-05T17:58:59.050Z,0.3
2022-10-05T18:03:58.894Z,0.3
2022-10-05T18:08:58.616Z,0.3
2022-10-05T18:13:57.556Z,0.3
2022-10-05T18:18:56.586Z,0.3
2022-10-05T18:23:56.299Z,0.3
2022-10-05T18:28:55.634Z,0.3
2022-10-05T18:33:54.997Z,0.3
2022-10-05T18:38:55.655Z,0.3
2022-10-05T18:43:53.028Z,0.3
2022-10-05T18:48:52.654Z,0.2
2022-10-05T18:53:51.584Z,0.3
2022-10-05T18:58:57.997Z,0.2
2022-10-05T19:00:11.849Z,0.2
2022-10-05T19:05:49.072Z,0.2
2022-10-05T19:10:10.108Z,0.2
2022-10-05T19:15:11.015Z,0.2
2022-10-05T19:20:08.082Z,0.2
2022-10-05T19:25:07.956Z,0.2
2022-10-05T19:30:06.930Z,0.2
2022-10-05T19:35:06.471Z,0.2
2022-10-05T19:40:10.841Z,0.2
2022-10-05T19:45:04.278Z,0.2
2022-10-05T19:50:04.698Z,0.2
2022-10-05T19:55:03.372Z,0.2
2022-10-05T19:59:25.286Z,0.2
2022-10-05T20:04:23.778Z,0.2
2022-10-05T20:09:23.160Z,0.2
2022-10-05T20:14:22.336Z,0.2
2022-10-05T20:19:22.969Z,0.2
2022-10-05T20:24:31.255Z,0.2
2022-10-05T20:29:29.783Z,0.1
2022-10-05T20:34:30.875Z,0.2
2022-10-05T20:39:27.649Z,0.2
2022-10-05T20:44:27.469Z,0.2
2022-10-05T20:49:28.435Z,0.2
2022-10-05T20:54:25.482Z,0.2
2022-10-05T20:59:06.294Z,0.2
2022-10-05T21:04:04.831Z,0.2
2022-10-05T21:09:05.314Z,0.2
2022-10-05T21:14:07.426Z,0.2
2022-10-05T21:19:02.175Z,0.2
2022-10-05T21:24:01.530Z,0.2
2022-10-05T21:29:00.608Z,0.2
2022-10-05T21:33:59.113Z,0.2
2022-10-05T21:38:58.591Z,0.2
2022-10-05T21:43:58.817Z,0.2
2022-10-05T21:49:49.848Z,0.2
2022-10-05T21:53:58.196Z,0.2
2022-10-05T21:58:43.917Z,0.2
2022-10-05T22:00:15.897Z,0.2
2022-10-05T22:05:03.780Z,0.2
2022-10-05T22:10:04.655Z,0.1
2022-10-05T22:15:03.472Z,0.2
2022-10-05T22:20:03.418Z,0.2
2022-10-05T22:25:01.607Z,0.2
2022-10-05T22:30:01.134Z,0.2
2022-10-05T22:35:00.829Z,0.2
2022-10-05T22:40:00.409Z,0.2
2022-10-05T22:44:59.417Z,0.2
2022-10-05T22:49:58.932Z,0.2
2022-10-05T22:54:59.065Z,0.2
2022-10-05T22:59:29.681Z,0.1
2022-10-05T23:04:29.740Z,0.2
2022-10-05T23:09:29.472Z,0.2
2022-10-05T23:14:29.379Z,0.2
2022-10-05T23:19:30.626Z,0.2
2022-10-05T23:24:27.171Z,0.2
2022-10-05T23:29:27.073Z,0.2
2022-10-05T23:34:27.896Z,0.2
2022-10-05T23:39:25.777Z,0.2
2022-10-05T23:44:25.167Z,0.2
2022-10-05T23:49:26.864Z,0.2
2022-10-05T23:54:13.456Z,0.2
2022-10-05T23:59:11.747Z,0.2
